sensor_id;sensor_type;location;lat;lon;timestamp;P1;durP1;ratioP1;P2;durP2;ratioP2
6651;SDS011;3362;50.892;10.692;2022-11-20T00:00:48;8.70;;;4.00;;
6651;SDS011;3362;50.892;10.692;2022-11-20T00:03:14;7.33;;;4.20;;
6651;SDS011;3362;50.892;10.692;2022-11-20T00:05:42;7.13;;;3.37;;
6651;SDS011;3362;50.892;10.692;2022-11-20T00:08:08;9.10;;;3.77;;
6651;SDS011;3362;50.892;10.692;2022-11-20T00:10:35;7.87;;;4.47;;
6651;SDS011;3362;50.892;10.692;2022-11-20T00:13:02;8.27;;;4.33;;
6651;SDS011;3362;50.892;10.692;2022-11-20T00:15:28;5.40;;;3.17;;
6651;SDS011;3362;50.892;10.692;2022-11-20T00:17:54;6.73;;;3.00;;
6651;SDS011;3362;50.892;10.692;2022-11-20T00:20:21;7.53;;;3.40;;
6651;SDS011;3362;50.892;10.692;2022-11-20T00:22:48;6.30;;;3.23;;
6651;SDS011;3362;50.892;10.692;2022-11-20T00:25:15;6.07;;;3.00;;
6651;SDS011;3362;50.892;10.692;2022-11-20T00:27:41;7.30;;;2.73;;
6651;SDS011;3362;50.892;10.692;2022-11-20T00:30:08;7.43;;;3.43;;
6651;SDS011;3362;50.892;10.692;2022-11-20T00:32:34;5.77;;;3.30;;
6651;SDS011;3362;50.892;10.692;2022-11-20T00:35:01;6.70;;;3.53;;
6651;SDS011;3362;50.892;10.692;2022-11-20T00:37:27;6.67;;;3.07;;
6651;SDS011;3362;50.892;10.692;2022-11-20T00:39:54;6.93;;;3.10;;
6651;SDS011;3362;50.892;10.692;2022-11-20T00:42:21;5.50;;;2.93;;
6651;SDS011;3362;50.892;10.692;2022-11-20T00:44:47;7.83;;;2.80;;
6651;SDS011;3362;50.892;10.692;2022-11-20T00:47:13;7.63;;;3.50;;
6651;SDS011;3362;50.892;10.692;2022-11-20T00:49:40;4.40;;;2.60;;
6651;SDS011;3362;50.892;10.692;2022-11-20T00:52:06;4.83;;;2.50;;
6651;SDS011;3362;50.892;10.692;2022-11-20T00:54:32;5.43;;;2.87;;
6651;SDS011;3362;50.892;10.692;2022-11-20T00:57:00;6.27;;;2.80;;
6651;SDS011;3362;50.892;10.692;2022-11-20T00:59:26;12.10;;;3.73;;
6651;SDS011;3362;50.892;10.692;2022-11-20T01:01:52;4.53;;;2.60;;
6651;SDS011;3362;50.892;10.692;2022-11-20T01:04:18;5.70;;;3.07;;
6651;SDS011;3362;50.892;10.692;2022-11-20T01:06:45;5.90;;;3.13;;
6651;SDS011;3362;50.892;10.692;2022-11-20T01:09:12;6.30;;;3.00;;
6651;SDS011;3362;50.892;10.692;2022-11-20T01:11:40;8.87;;;2.27;;
6651;SDS011;3362;50.892;10.692;2022-11-20T01:14:10;2.93;;;2.30;;
6651;SDS011;3362;50.892;10.692;2022-11-20T01:16:37;6.73;;;3.03;;
6651;SDS011;3362;50.892;10.692;2022-11-20T01:19:04;6.33;;;2.73;;
6651;SDS011;3362;50.892;10.692;2022-11-20T01:21:32;6.60;;;2.33;;
6651;SDS011;3362;50.892;10.692;2022-11-20T01:23:59;5.37;;;2.63;;
6651;SDS011;3362;50.892;10.692;2022-11-20T01:26:27;9.03;;;3.10;;
6651;SDS011;3362;50.892;10.692;2022-11-20T01:28:54;6.67;;;2.57;;
6651;SDS011;3362;50.892;10.692;2022-11-20T01:31:22;8.20;;;2.73;;
6651;SDS011;3362;50.892;10.692;2022-11-20T01:33:49;6.90;;;3.20;;
6651;SDS011;3362;50.892;10.692;2022-11-20T01:36:16;6.33;;;2.27;;
6651;SDS011;3362;50.892;10.692;2022-11-20T01:38:43;9.17;;;3.70;;
6651;SDS011;3362;50.892;10.692;2022-11-20T01:41:10;6.53;;;3.63;;
6651;SDS011;3362;50.892;10.692;2022-11-20T01:43:56;4.87;;;2.93;;
6651;SDS011;3362;50.892;10.692;2022-11-20T01:46:23;4.90;;;2.10;;
6651;SDS011;3362;50.892;10.692;2022-11-20T01:48:50;10.53;;;3.30;;
6651;SDS011;3362;50.892;10.692;2022-11-20T01:51:21;5.90;;;3.70;;
6651;SDS011;3362;50.892;10.692;2022-11-20T01:53:50;7.30;;;2.93;;
6651;SDS011;3362;50.892;10.692;2022-11-20T01:56:17;4.17;;;2.30;;
6651;SDS011;3362;50.892;10.692;2022-11-20T01:58:45;7.73;;;3.00;;
6651;SDS011;3362;50.892;10.692;2022-11-20T02:01:12;8.10;;;3.20;;
6651;SDS011;3362;50.892;10.692;2022-11-20T02:03:40;9.03;;;3.80;;
6651;SDS011;3362;50.892;10.692;2022-11-20T02:06:09;6.43;;;3.80;;
6651;SDS011;3362;50.892;10.692;2022-11-20T02:08:37;10.23;;;4.77;;
6651;SDS011;3362;50.892;10.692;2022-11-20T02:11:04;11.73;;;4.20;;
6651;SDS011;3362;50.892;10.692;2022-11-20T02:13:30;9.67;;;3.23;;
6651;SDS011;3362;50.892;10.692;2022-11-20T02:16:13;8.60;;;2.67;;
6651;SDS011;3362;50.892;10.692;2022-11-20T02:18:41;6.87;;;3.83;;
6651;SDS011;3362;50.892;10.692;2022-11-20T02:21:09;5.43;;;3.10;;
6651;SDS011;3362;50.892;10.692;2022-11-20T02:23:39;6.57;;;2.60;;
6651;SDS011;3362;50.892;10.692;2022-11-20T02:26:08;5.33;;;3.57;;
6651;SDS011;3362;50.892;10.692;2022-11-20T02:28:36;3.87;;;2.20;;
6651;SDS011;3362;50.892;10.692;2022-11-20T02:31:02;8.03;;;3.40;;
6651;SDS011;3362;50.892;10.692;2022-11-20T02:33:28;7.47;;;3.33;;
6651;SDS011;3362;50.892;10.692;2022-11-20T02:35:55;5.30;;;3.37;;
6651;SDS011;3362;50.892;10.692;2022-11-20T02:38:21;6.00;;;2.43;;
6651;SDS011;3362;50.892;10.692;2022-11-20T02:40:47;9.23;;;2.97;;
6651;SDS011;3362;50.892;10.692;2022-11-20T02:43:16;6.03;;;2.70;;
6651;SDS011;3362;50.892;10.692;2022-11-20T02:45:42;5.87;;;3.53;;
6651;SDS011;3362;50.892;10.692;2022-11-20T02:48:09;4.40;;;1.90;;
6651;SDS011;3362;50.892;10.692;2022-11-20T02:50:36;5.77;;;2.23;;
6651;SDS011;3362;50.892;10.692;2022-11-20T02:53:02;5.20;;;2.23;;
6651;SDS011;3362;50.892;10.692;2022-11-20T02:55:28;4.03;;;2.27;;
6651;SDS011;3362;50.892;10.692;2022-11-20T02:57:55;3.40;;;2.20;;
6651;SDS011;3362;50.892;10.692;2022-11-20T03:00:22;4.67;;;2.70;;
6651;SDS011;3362;50.892;10.692;2022-11-20T03:02:49;3.53;;;1.63;;
6651;SDS011;3362;50.892;10.692;2022-11-20T03:05:15;4.63;;;2.00;;
6651;SDS011;3362;50.892;10.692;2022-11-20T03:07:42;6.00;;;2.93;;
6651;SDS011;3362;50.892;10.692;2022-11-20T03:10:09;4.27;;;1.90;;
6651;SDS011;3362;50.892;10.692;2022-11-20T03:12:35;3.90;;;2.27;;
6651;SDS011;3362;50.892;10.692;2022-11-20T03:15:02;4.00;;;2.97;;
6651;SDS011;3362;50.892;10.692;2022-11-20T03:17:29;4.03;;;2.17;;
6651;SDS011;3362;50.892;10.692;2022-11-20T03:19:56;5.07;;;1.87;;
6651;SDS011;3362;50.892;10.692;2022-11-20T03:22:22;5.80;;;2.13;;
6651;SDS011;3362;50.892;10.692;2022-11-20T03:24:48;2.80;;;1.70;;
6651;SDS011;3362;50.892;10.692;2022-11-20T03:27:14;3.47;;;1.50;;
6651;SDS011;3362;50.892;10.692;2022-11-20T03:29:41;4.73;;;1.93;;
6651;SDS011;3362;50.892;10.692;2022-11-20T03:32:07;2.47;;;1.50;;
6651;SDS011;3362;50.892;10.692;2022-11-20T03:34:35;6.70;;;2.10;;
6651;SDS011;3362;50.892;10.692;2022-11-20T03:37:01;4.23;;;2.37;;
6651;SDS011;3362;50.892;10.692;2022-11-20T03:39:27;3.27;;;2.20;;
6651;SDS011;3362;50.892;10.692;2022-11-20T03:41:53;6.63;;;2.07;;
6651;SDS011;3362;50.892;10.692;2022-11-20T03:44:20;3.97;;;1.63;;
6651;SDS011;3362;50.892;10.692;2022-11-20T03:46:47;4.50;;;2.13;;
6651;SDS011;3362;50.892;10.692;2022-11-20T03:49:13;5.27;;;2.73;;
6651;SDS011;3362;50.892;10.692;2022-11-20T03:51:40;3.20;;;2.03;;
6651;SDS011;3362;50.892;10.692;2022-11-20T03:54:07;2.37;;;1.60;;
6651;SDS011;3362;50.892;10.692;2022-11-20T03:56:35;4.20;;;1.90;;
6651;SDS011;3362;50.892;10.692;2022-11-20T03:59:01;4.73;;;2.57;;
6651;SDS011;3362;50.892;10.692;2022-11-20T04:01:29;4.03;;;1.50;;
6651;SDS011;3362;50.892;10.692;2022-11-20T04:03:56;2.50;;;1.60;;
6651;SDS011;3362;50.892;10.692;2022-11-20T04:06:23;3.53;;;2.20;;
6651;SDS011;3362;50.892;10.692;2022-11-20T04:08:51;5.53;;;2.03;;
6651;SDS011;3362;50.892;10.692;2022-11-20T04:11:20;3.80;;;1.20;;
6651;SDS011;3362;50.892;10.692;2022-11-20T04:13:47;3.03;;;1.47;;
6651;SDS011;3362;50.892;10.692;2022-11-20T04:16:14;3.03;;;1.70;;
6651;SDS011;3362;50.892;10.692;2022-11-20T04:18:40;2.70;;;1.87;;
6651;SDS011;3362;50.892;10.692;2022-11-20T04:21:07;4.80;;;2.33;;
6651;SDS011;3362;50.892;10.692;2022-11-20T04:23:33;5.93;;;2.20;;
6651;SDS011;3362;50.892;10.692;2022-11-20T04:26:05;9.23;;;2.03;;
6651;SDS011;3362;50.892;10.692;2022-11-20T04:28:32;1.90;;;1.30;;
6651;SDS011;3362;50.892;10.692;2022-11-20T04:31:02;3.23;;;1.80;;
6651;SDS011;3362;50.892;10.692;2022-11-20T04:33:28;3.63;;;1.77;;
6651;SDS011;3362;50.892;10.692;2022-11-20T04:35:55;4.77;;;2.10;;
6651;SDS011;3362;50.892;10.692;2022-11-20T04:38:21;4.17;;;2.10;;
6651;SDS011;3362;50.892;10.692;2022-11-20T04:40:47;2.93;;;1.93;;
6651;SDS011;3362;50.892;10.692;2022-11-20T04:43:15;2.77;;;2.03;;
6651;SDS011;3362;50.892;10.692;2022-11-20T04:45:41;9.20;;;2.50;;
6651;SDS011;3362;50.892;10.692;2022-11-20T04:48:07;4.20;;;2.93;;
6651;SDS011;3362;50.892;10.692;2022-11-20T04:50:34;8.13;;;3.27;;
6651;SDS011;3362;50.892;10.692;2022-11-20T04:53:00;5.03;;;2.30;;
6651;SDS011;3362;50.892;10.692;2022-11-20T04:55:26;3.63;;;2.13;;
6651;SDS011;3362;50.892;10.692;2022-11-20T04:57:52;7.87;;;3.53;;
6651;SDS011;3362;50.892;10.692;2022-11-20T05:00:20;5.37;;;3.10;;
6651;SDS011;3362;50.892;10.692;2022-11-20T05:02:46;12.17;;;4.00;;
6651;SDS011;3362;50.892;10.692;2022-11-20T05:05:13;6.10;;;3.57;;
6651;SDS011;3362;50.892;10.692;2022-11-20T05:07:39;7.07;;;2.67;;
6651;SDS011;3362;50.892;10.692;2022-11-20T05:10:06;7.13;;;2.87;;
6651;SDS011;3362;50.892;10.692;2022-11-20T05:12:32;12.33;;;3.23;;
6651;SDS011;3362;50.892;10.692;2022-11-20T05:14:58;5.57;;;2.77;;
6651;SDS011;3362;50.892;10.692;2022-11-20T05:17:26;7.03;;;3.47;;
6651;SDS011;3362;50.892;10.692;2022-11-20T05:19:52;7.57;;;3.07;;
6651;SDS011;3362;50.892;10.692;2022-11-20T05:22:18;6.00;;;3.13;;
6651;SDS011;3362;50.892;10.692;2022-11-20T05:24:45;11.60;;;3.30;;
6651;SDS011;3362;50.892;10.692;2022-11-20T05:27:11;5.60;;;3.17;;
6651;SDS011;3362;50.892;10.692;2022-11-20T05:29:37;9.80;;;3.40;;
6651;SDS011;3362;50.892;10.692;2022-11-20T05:32:04;7.33;;;3.40;;
6651;SDS011;3362;50.892;10.692;2022-11-20T05:34:33;12.17;;;3.47;;
6651;SDS011;3362;50.892;10.692;2022-11-20T05:36:59;5.90;;;3.40;;
6651;SDS011;3362;50.892;10.692;2022-11-20T05:39:26;8.73;;;3.40;;
6651;SDS011;3362;50.892;10.692;2022-11-20T05:41:52;8.97;;;4.53;;
6651;SDS011;3362;50.892;10.692;2022-11-20T05:44:38;5.53;;;2.77;;
6651;SDS011;3362;50.892;10.692;2022-11-20T05:47:05;5.93;;;3.07;;
6651;SDS011;3362;50.892;10.692;2022-11-20T05:49:31;6.73;;;2.87;;
6651;SDS011;3362;50.892;10.692;2022-11-20T05:51:59;11.67;;;3.80;;
6651;SDS011;3362;50.892;10.692;2022-11-20T05:54:25;6.00;;;3.80;;
6651;SDS011;3362;50.892;10.692;2022-11-20T05:56:51;9.43;;;3.17;;
6651;SDS011;3362;50.892;10.692;2022-11-20T05:59:18;8.83;;;3.77;;
6651;SDS011;3362;50.892;10.692;2022-11-20T06:01:44;8.70;;;4.10;;
6651;SDS011;3362;50.892;10.692;2022-11-20T06:04:10;7.67;;;3.40;;
6651;SDS011;3362;50.892;10.692;2022-11-20T06:06:36;6.80;;;3.87;;
6651;SDS011;3362;50.892;10.692;2022-11-20T06:09:04;8.83;;;5.00;;
6651;SDS011;3362;50.892;10.692;2022-11-20T06:11:30;7.13;;;3.13;;
6651;SDS011;3362;50.892;10.692;2022-11-20T06:13:57;5.57;;;3.27;;
6651;SDS011;3362;50.892;10.692;2022-11-20T06:16:23;7.40;;;3.93;;
6651;SDS011;3362;50.892;10.692;2022-11-20T06:18:49;10.20;;;3.90;;
6651;SDS011;3362;50.892;10.692;2022-11-20T06:21:16;7.67;;;4.70;;
6651;SDS011;3362;50.892;10.692;2022-11-20T06:23:43;4.83;;;3.47;;
6651;SDS011;3362;50.892;10.692;2022-11-20T06:26:12;6.60;;;3.60;;
6651;SDS011;3362;50.892;10.692;2022-11-20T06:28:38;8.73;;;4.10;;
6651;SDS011;3362;50.892;10.692;2022-11-20T06:31:05;6.10;;;3.23;;
6651;SDS011;3362;50.892;10.692;2022-11-20T06:33:32;9.70;;;3.67;;
6651;SDS011;3362;50.892;10.692;2022-11-20T06:35:58;12.27;;;4.93;;
6651;SDS011;3362;50.892;10.692;2022-11-20T06:38:25;6.90;;;3.43;;
6651;SDS011;3362;50.892;10.692;2022-11-20T06:40:51;12.13;;;3.73;;
6651;SDS011;3362;50.892;10.692;2022-11-20T06:43:19;7.00;;;3.10;;
6651;SDS011;3362;50.892;10.692;2022-11-20T06:45:45;8.70;;;3.37;;
6651;SDS011;3362;50.892;10.692;2022-11-20T06:48:12;5.47;;;2.53;;
6651;SDS011;3362;50.892;10.692;2022-11-20T06:50:38;4.80;;;2.00;;
6651;SDS011;3362;50.892;10.692;2022-11-20T06:53:05;4.50;;;2.10;;
6651;SDS011;3362;50.892;10.692;2022-11-20T06:55:31;3.67;;;1.87;;
6651;SDS011;3362;50.892;10.692;2022-11-20T06:57:58;2.53;;;1.87;;
6651;SDS011;3362;50.892;10.692;2022-11-20T07:00:25;3.73;;;2.10;;
6651;SDS011;3362;50.892;10.692;2022-11-20T07:02:51;2.97;;;1.60;;
6651;SDS011;3362;50.892;10.692;2022-11-20T07:05:18;5.67;;;2.13;;
6651;SDS011;3362;50.892;10.692;2022-11-20T07:07:44;4.07;;;1.87;;
6651;SDS011;3362;50.892;10.692;2022-11-20T07:10:11;2.53;;;1.67;;
6651;SDS011;3362;50.892;10.692;2022-11-20T07:12:37;2.47;;;2.00;;
6651;SDS011;3362;50.892;10.692;2022-11-20T07:15:04;4.67;;;2.23;;
6651;SDS011;3362;50.892;10.692;2022-11-20T07:17:31;3.53;;;1.90;;
6651;SDS011;3362;50.892;10.692;2022-11-20T07:19:58;6.70;;;3.27;;
6651;SDS011;3362;50.892;10.692;2022-11-20T07:22:24;10.40;;;5.30;;
6651;SDS011;3362;50.892;10.692;2022-11-20T07:24:50;11.57;;;4.33;;
6651;SDS011;3362;50.892;10.692;2022-11-20T07:27:16;9.57;;;5.10;;
6651;SDS011;3362;50.892;10.692;2022-11-20T07:29:43;7.80;;;4.10;;
6651;SDS011;3362;50.892;10.692;2022-11-20T07:32:09;9.57;;;4.87;;
6651;SDS011;3362;50.892;10.692;2022-11-20T07:34:37;14.93;;;5.00;;
6651;SDS011;3362;50.892;10.692;2022-11-20T07:37:03;15.37;;;6.37;;
6651;SDS011;3362;50.892;10.692;2022-11-20T07:39:29;9.67;;;4.83;;
6651;SDS011;3362;50.892;10.692;2022-11-20T07:41:55;6.57;;;3.53;;
6651;SDS011;3362;50.892;10.692;2022-11-20T07:44:22;8.53;;;4.43;;
6651;SDS011;3362;50.892;10.692;2022-11-20T07:46:48;11.20;;;4.90;;
6651;SDS011;3362;50.892;10.692;2022-11-20T07:49:14;13.97;;;6.83;;
6651;SDS011;3362;50.892;10.692;2022-11-20T07:51:42;13.20;;;6.37;;
6651;SDS011;3362;50.892;10.692;2022-11-20T07:54:08;13.30;;;7.33;;
6651;SDS011;3362;50.892;10.692;2022-11-20T07:56:34;10.00;;;4.17;;
6651;SDS011;3362;50.892;10.692;2022-11-20T07:59:01;8.83;;;4.57;;
6651;SDS011;3362;50.892;10.692;2022-11-20T08:01:27;9.23;;;3.80;;
6651;SDS011;3362;50.892;10.692;2022-11-20T08:03:53;9.20;;;4.03;;
6651;SDS011;3362;50.892;10.692;2022-11-20T08:06:19;8.03;;;4.00;;
6651;SDS011;3362;50.892;10.692;2022-11-20T08:08:47;11.20;;;3.40;;
6651;SDS011;3362;50.892;10.692;2022-11-20T08:11:13;8.57;;;4.60;;
6651;SDS011;3362;50.892;10.692;2022-11-20T08:13:57;5.83;;;3.10;;
6651;SDS011;3362;50.892;10.692;2022-11-20T08:16:39;8.93;;;3.80;;
6651;SDS011;3362;50.892;10.692;2022-11-20T08:19:05;6.60;;;3.93;;
6651;SDS011;3362;50.892;10.692;2022-11-20T08:21:31;6.97;;;3.70;;
6651;SDS011;3362;50.892;10.692;2022-11-20T08:23:59;7.50;;;4.17;;
6651;SDS011;3362;50.892;10.692;2022-11-20T08:26:26;10.33;;;4.60;;
6651;SDS011;3362;50.892;10.692;2022-11-20T08:28:53;9.90;;;4.47;;
6651;SDS011;3362;50.892;10.692;2022-11-20T08:31:19;6.93;;;4.30;;
6651;SDS011;3362;50.892;10.692;2022-11-20T08:33:45;8.43;;;3.80;;
6651;SDS011;3362;50.892;10.692;2022-11-20T08:36:12;7.13;;;3.83;;
6651;SDS011;3362;50.892;10.692;2022-11-20T08:38:38;9.27;;;4.40;;
6651;SDS011;3362;50.892;10.692;2022-11-20T08:41:06;10.33;;;5.90;;
6651;SDS011;3362;50.892;10.692;2022-11-20T08:43:52;10.43;;;6.00;;
6651;SDS011;3362;50.892;10.692;2022-11-20T08:46:18;7.27;;;4.83;;
6651;SDS011;3362;50.892;10.692;2022-11-20T08:48:45;11.50;;;5.03;;
6651;SDS011;3362;50.892;10.692;2022-11-20T08:51:11;14.25;;;5.10;;
6651;SDS011;3362;50.892;10.692;2022-11-20T08:53:38;13.13;;;5.37;;
6651;SDS011;3362;50.892;10.692;2022-11-20T08:56:06;8.33;;;4.60;;
6651;SDS011;3362;50.892;10.692;2022-11-20T08:58:32;10.10;;;4.20;;
6651;SDS011;3362;50.892;10.692;2022-11-20T09:00:59;8.07;;;3.97;;
6651;SDS011;3362;50.892;10.692;2022-11-20T09:03:25;10.37;;;4.90;;
6651;SDS011;3362;50.892;10.692;2022-11-20T09:05:56;12.13;;;4.33;;
6651;SDS011;3362;50.892;10.692;2022-11-20T09:08:22;10.03;;;5.23;;
6651;SDS011;3362;50.892;10.692;2022-11-20T09:10:50;6.87;;;4.83;;
6651;SDS011;3362;50.892;10.692;2022-11-20T09:13:18;8.03;;;4.10;;
6651;SDS011;3362;50.892;10.692;2022-11-20T09:15:44;11.97;;;4.90;;
6651;SDS011;3362;50.892;10.692;2022-11-20T09:18:10;6.70;;;4.07;;
6651;SDS011;3362;50.892;10.692;2022-11-20T09:20:37;7.73;;;4.27;;
6651;SDS011;3362;50.892;10.692;2022-11-20T09:23:03;7.73;;;3.70;;
6651;SDS011;3362;50.892;10.692;2022-11-20T09:25:29;11.33;;;4.37;;
6651;SDS011;3362;50.892;10.692;2022-11-20T09:27:56;10.00;;;4.90;;
6651;SDS011;3362;50.892;10.692;2022-11-20T09:30:24;9.67;;;4.63;;
6651;SDS011;3362;50.892;10.692;2022-11-20T09:32:50;6.00;;;3.43;;
6651;SDS011;3362;50.892;10.692;2022-11-20T09:35:16;7.13;;;4.07;;
6651;SDS011;3362;50.892;10.692;2022-11-20T09:37:43;6.23;;;3.97;;
6651;SDS011;3362;50.892;10.692;2022-11-20T09:40:11;10.80;;;5.23;;
6651;SDS011;3362;50.892;10.692;2022-11-20T09:42:44;8.83;;;4.50;;
6651;SDS011;3362;50.892;10.692;2022-11-20T09:45:15;9.67;;;4.37;;
6651;SDS011;3362;50.892;10.692;2022-11-20T09:47:50;8.97;;;4.63;;
6651;SDS011;3362;50.892;10.692;2022-11-20T09:50:23;15.80;;;6.83;;
6651;SDS011;3362;50.892;10.692;2022-11-20T09:52:55;12.77;;;6.23;;
6651;SDS011;3362;50.892;10.692;2022-11-20T09:55:23;11.80;;;5.40;;
6651;SDS011;3362;50.892;10.692;2022-11-20T09:57:51;9.67;;;5.63;;
6651;SDS011;3362;50.892;10.692;2022-11-20T10:00:17;11.30;;;5.93;;
6651;SDS011;3362;50.892;10.692;2022-11-20T10:02:48;8.80;;;4.60;;
6651;SDS011;3362;50.892;10.692;2022-11-20T10:05:17;11.90;;;5.47;;
6651;SDS011;3362;50.892;10.692;2022-11-20T10:07:46;11.50;;;5.67;;
6651;SDS011;3362;50.892;10.692;2022-11-20T10:10:14;10.67;;;5.23;;
6651;SDS011;3362;50.892;10.692;2022-11-20T10:12:45;8.70;;;4.60;;
6651;SDS011;3362;50.892;10.692;2022-11-20T10:15:21;15.63;;;6.13;;
6651;SDS011;3362;50.892;10.692;2022-11-20T10:17:54;11.23;;;5.10;;
6651;SDS011;3362;50.892;10.692;2022-11-20T10:20:27;14.00;;;5.60;;
6651;SDS011;3362;50.892;10.692;2022-11-20T10:23:00;10.30;;;5.20;;
6651;SDS011;3362;50.892;10.692;2022-11-20T10:25:30;11.53;;;4.90;;
6651;SDS011;3362;50.892;10.692;2022-11-20T10:28:10;30.83;;;15.80;;
6651;SDS011;3362;50.892;10.692;2022-11-20T10:30:37;19.80;;;11.17;;
6651;SDS011;3362;50.892;10.692;2022-11-20T10:33:10;21.40;;;9.63;;
6651;SDS011;3362;50.892;10.692;2022-11-20T10:35:40;14.80;;;7.77;;
6651;SDS011;3362;50.892;10.692;2022-11-20T10:38:09;13.97;;;6.93;;
6651;SDS011;3362;50.892;10.692;2022-11-20T10:40:40;10.90;;;6.10;;
6651;SDS011;3362;50.892;10.692;2022-11-20T10:43:08;12.27;;;6.07;;
6651;SDS011;3362;50.892;10.692;2022-11-20T10:45:40;12.60;;;7.33;;
6651;SDS011;3362;50.892;10.692;2022-11-20T10:48:12;9.43;;;5.87;;
6651;SDS011;3362;50.892;10.692;2022-11-20T10:50:42;7.23;;;4.47;;
6651;SDS011;3362;50.892;10.692;2022-11-20T10:53:14;10.20;;;6.07;;
6651;SDS011;3362;50.892;10.692;2022-11-20T10:55:42;12.13;;;5.97;;
6651;SDS011;3362;50.892;10.692;2022-11-20T10:58:12;12.80;;;6.27;;
6651;SDS011;3362;50.892;10.692;2022-11-20T11:00:39;16.77;;;6.90;;
6651;SDS011;3362;50.892;10.692;2022-11-20T11:03:13;12.97;;;6.33;;
6651;SDS011;3362;50.892;10.692;2022-11-20T11:05:46;13.03;;;6.17;;
6651;SDS011;3362;50.892;10.692;2022-11-20T11:08:15;12.57;;;6.03;;
6651;SDS011;3362;50.892;10.692;2022-11-20T11:10:44;11.73;;;5.77;;
6651;SDS011;3362;50.892;10.692;2022-11-20T11:13:18;10.03;;;5.33;;
6651;SDS011;3362;50.892;10.692;2022-11-20T11:15:45;11.30;;;6.07;;
6651;SDS011;3362;50.892;10.692;2022-11-20T11:18:11;10.00;;;5.10;;
6651;SDS011;3362;50.892;10.692;2022-11-20T11:20:51;12.60;;;5.90;;
6651;SDS011;3362;50.892;10.692;2022-11-20T11:23:22;13.07;;;6.30;;
6651;SDS011;3362;50.892;10.692;2022-11-20T11:25:56;19.00;;;9.00;;
6651;SDS011;3362;50.892;10.692;2022-11-20T11:28:23;23.73;;;8.32;;
6651;SDS011;3362;50.892;10.692;2022-11-20T11:30:52;34.70;;;12.83;;
6651;SDS011;3362;50.892;10.692;2022-11-20T11:33:19;51.33;;;18.53;;
6651;SDS011;3362;50.892;10.692;2022-11-20T11:35:53;37.27;;;15.57;;
6651;SDS011;3362;50.892;10.692;2022-11-20T11:38:27;25.53;;;12.00;;
6651;SDS011;3362;50.892;10.692;2022-11-20T11:40:54;21.80;;;10.80;;
6651;SDS011;3362;50.892;10.692;2022-11-20T11:43:23;29.47;;;10.67;;
6651;SDS011;3362;50.892;10.692;2022-11-20T11:46:13;19.10;;;9.70;;
6651;SDS011;3362;50.892;10.692;2022-11-20T11:48:54;18.07;;;8.93;;
6651;SDS011;3362;50.892;10.692;2022-11-20T11:51:20;22.50;;;9.57;;
6651;SDS011;3362;50.892;10.692;2022-11-20T11:53:48;25.60;;;9.33;;
6651;SDS011;3362;50.892;10.692;2022-11-20T11:56:14;27.23;;;8.57;;
6651;SDS011;3362;50.892;10.692;2022-11-20T11:58:42;25.43;;;10.73;;
6651;SDS011;3362;50.892;10.692;2022-11-20T12:01:12;28.67;;;10.17;;
6651;SDS011;3362;50.892;10.692;2022-11-20T12:03:44;26.93;;;11.43;;
6651;SDS011;3362;50.892;10.692;2022-11-20T12:06:15;26.17;;;8.87;;
6651;SDS011;3362;50.892;10.692;2022-11-20T12:08:43;22.63;;;9.67;;
6651;SDS011;3362;50.892;10.692;2022-11-20T12:11:13;33.40;;;12.20;;
6651;SDS011;3362;50.892;10.692;2022-11-20T12:13:44;56.80;;;20.70;;
6651;SDS011;3362;50.892;10.692;2022-11-20T12:16:11;34.40;;;15.03;;
6651;SDS011;3362;50.892;10.692;2022-11-20T12:18:39;38.03;;;12.90;;
6651;SDS011;3362;50.892;10.692;2022-11-20T12:21:08;29.77;;;12.47;;
6651;SDS011;3362;50.892;10.692;2022-11-20T12:23:40;25.97;;;10.63;;
6651;SDS011;3362;50.892;10.692;2022-11-20T12:26:11;25.07;;;9.77;;
6651;SDS011;3362;50.892;10.692;2022-11-20T12:28:46;23.83;;;9.40;;
6651;SDS011;3362;50.892;10.692;2022-11-20T12:31:36;22.70;;;9.43;;
6651;SDS011;3362;50.892;10.692;2022-11-20T12:36:50;22.73;;;9.17;;
6651;SDS011;3362;50.892;10.692;2022-11-20T12:39:25;22.97;;;9.20;;
6651;SDS011;3362;50.892;10.692;2022-11-20T12:42:05;21.50;;;8.80;;
6651;SDS011;3362;50.892;10.692;2022-11-20T12:45:00;23.33;;;10.15;;
6651;SDS011;3362;50.892;10.692;2022-11-20T12:47:47;32.03;;;10.77;;
6651;SDS011;3362;50.892;10.692;2022-11-20T12:50:17;27.50;;;9.33;;
6651;SDS011;3362;50.892;10.692;2022-11-20T12:52:47;21.97;;;10.00;;
6651;SDS011;3362;50.892;10.692;2022-11-20T12:55:21;30.17;;;12.85;;
6651;SDS011;3362;50.892;10.692;2022-11-20T12:57:50;26.95;;;10.32;;
6651;SDS011;3362;50.892;10.692;2022-11-20T13:00:18;31.10;;;11.37;;
6651;SDS011;3362;50.892;10.692;2022-11-20T13:05:44;33.22;;;12.95;;
6651;SDS011;3362;50.892;10.692;2022-11-20T13:08:14;27.17;;;11.93;;
6651;SDS011;3362;50.892;10.692;2022-11-20T13:10:45;25.77;;;10.67;;
6651;SDS011;3362;50.892;10.692;2022-11-20T13:13:13;31.77;;;12.00;;
6651;SDS011;3362;50.892;10.692;2022-11-20T13:15:44;51.83;;;16.75;;
6651;SDS011;3362;50.892;10.692;2022-11-20T13:18:14;50.83;;;16.40;;
6651;SDS011;3362;50.892;10.692;2022-11-20T13:20:44;57.27;;;16.73;;
6651;SDS011;3362;50.892;10.692;2022-11-20T13:23:10;69.03;;;21.80;;
6651;SDS011;3362;50.892;10.692;2022-11-20T13:25:37;55.80;;;18.20;;
6651;SDS011;3362;50.892;10.692;2022-11-20T13:28:05;76.43;;;20.30;;
6651;SDS011;3362;50.892;10.692;2022-11-20T13:30:52;56.13;;;17.40;;
6651;SDS011;3362;50.892;10.692;2022-11-20T13:33:22;79.82;;;22.38;;
6651;SDS011;3362;50.892;10.692;2022-11-20T13:35:54;59.80;;;16.83;;
6651;SDS011;3362;50.892;10.692;2022-11-20T13:38:21;42.67;;;14.27;;
6651;SDS011;3362;50.892;10.692;2022-11-20T13:40:50;57.37;;;19.17;;
6651;SDS011;3362;50.892;10.692;2022-11-20T13:43:19;56.28;;;23.15;;
6651;SDS011;3362;50.892;10.692;2022-11-20T13:45:55;49.42;;;16.48;;
6651;SDS011;3362;50.892;10.692;2022-11-20T13:48:22;37.85;;;14.30;;
6651;SDS011;3362;50.892;10.692;2022-11-20T13:50:53;32.80;;;13.07;;
6651;SDS011;3362;50.892;10.692;2022-11-20T13:53:24;25.37;;;10.07;;
6651;SDS011;3362;50.892;10.692;2022-11-20T13:55:54;28.87;;;10.67;;
6651;SDS011;3362;50.892;10.692;2022-11-20T13:58:24;27.90;;;9.93;;
6651;SDS011;3362;50.892;10.692;2022-11-20T14:00:57;22.48;;;11.50;;
6651;SDS011;3362;50.892;10.692;2022-11-20T14:03:25;26.07;;;9.93;;
6651;SDS011;3362;50.892;10.692;2022-11-20T14:05:52;22.10;;;8.93;;
6651;SDS011;3362;50.892;10.692;2022-11-20T14:08:23;18.20;;;9.07;;
6651;SDS011;3362;50.892;10.692;2022-11-20T14:10:51;21.10;;;8.53;;
6651;SDS011;3362;50.892;10.692;2022-11-20T14:13:27;20.07;;;8.10;;
6651;SDS011;3362;50.892;10.692;2022-11-20T14:15:57;23.00;;;8.82;;
6651;SDS011;3362;50.892;10.692;2022-11-20T14:18:25;21.53;;;8.63;;
6651;SDS011;3362;50.892;10.692;2022-11-20T14:20:51;18.30;;;8.37;;
6651;SDS011;3362;50.892;10.692;2022-11-20T14:23:23;20.80;;;7.70;;
6651;SDS011;3362;50.892;10.692;2022-11-20T14:25:49;20.53;;;8.17;;
6651;SDS011;3362;50.892;10.692;2022-11-20T14:28:18;18.73;;;7.80;;
6651;SDS011;3362;50.892;10.692;2022-11-20T14:30:46;18.93;;;7.10;;
6651;SDS011;3362;50.892;10.692;2022-11-20T14:33:14;14.23;;;6.73;;
6651;SDS011;3362;50.892;10.692;2022-11-20T14:35:44;14.20;;;6.37;;
6651;SDS011;3362;50.892;10.692;2022-11-20T14:38:11;15.70;;;6.63;;
6651;SDS011;3362;50.892;10.692;2022-11-20T14:40:38;14.73;;;6.87;;
6651;SDS011;3362;50.892;10.692;2022-11-20T14:43:15;14.68;;;5.93;;
6651;SDS011;3362;50.892;10.692;2022-11-20T14:45:42;14.70;;;6.68;;
6651;SDS011;3362;50.892;10.692;2022-11-20T14:48:09;12.65;;;5.50;;
6651;SDS011;3362;50.892;10.692;2022-11-20T14:50:37;9.98;;;5.10;;
6651;SDS011;3362;50.892;10.692;2022-11-20T14:53:04;14.03;;;6.13;;
6651;SDS011;3362;50.892;10.692;2022-11-20T14:55:31;11.07;;;4.53;;
6651;SDS011;3362;50.892;10.692;2022-11-20T14:57:58;14.25;;;6.13;;
6651;SDS011;3362;50.892;10.692;2022-11-20T15:00:25;9.93;;;4.67;;
6651;SDS011;3362;50.892;10.692;2022-11-20T15:02:51;8.43;;;4.23;;
6651;SDS011;3362;50.892;10.692;2022-11-20T15:05:19;8.73;;;4.20;;